sensor_id;sensor_type;location;lat;lon;timestamp;P1;durP1;ratioP1;P2;durP2;ratioP2
52798;SDS011;38667;42.872;74.622;2023-03-11T00:00:35;27.20;;;12.10;;
52798;SDS011;38667;42.872;74.622;2023-03-11T00:03:03;47.97;;;17.88;;
52798;SDS011;38667;42.872;74.622;2023-03-11T00:05:31;29.50;;;15.07;;
52798;SDS011;38667;42.872;74.622;2023-03-11T00:08:00;50.17;;;17.85;;
52798;SDS011;38667;42.872;74.622;2023-03-11T00:10:28;46.35;;;20.92;;
52798;SDS011;38667;42.872;74.622;2023-03-11T00:12:56;13.43;;;7.60;;
52798;SDS011;38667;42.872;74.622;2023-03-11T00:15:23;45.35;;;24.30;;
52798;SDS011;38667;42.872;74.622;2023-03-11T00:17:51;44.60;;;23.95;;
52798;SDS011;38667;42.872;74.622;2023-03-11T00:20:18;39.20;;;19.15;;
52798;SDS011;38667;42.872;74.622;2023-03-11T00:22:46;28.80;;;13.80;;
52798;SDS011;38667;42.872;74.622;2023-03-11T00:25:13;24.30;;;11.75;;
52798;SDS011;38667;42.872;74.622;2023-03-11T00:27:39;30.27;;;11.15;;
52798;SDS011;38667;42.872;74.622;2023-03-11T00:30:06;27.13;;;9.02;;
52798;SDS011;38667;42.872;74.622;2023-03-11T00:32:33;24.40;;;9.18;;
52798;SDS011;38667;42.872;74.622;2023-03-11T00:35:02;22.77;;;7.55;;
52798;SDS011;38667;42.872;74.622;2023-03-11T00:37:28;30.38;;;8.10;;
52798;SDS011;38667;42.872;74.622;2023-03-11T00:39:55;22.48;;;8.90;;
52798;SDS011;38667;42.872;74.622;2023-03-11T00:42:21;30.42;;;9.35;;
52798;SDS011;38667;42.872;74.622;2023-03-11T00:44:47;19.85;;;8.52;;
52798;SDS011;38667;42.872;74.622;2023-03-11T00:47:14;17.85;;;7.55;;
52798;SDS011;38667;42.872;74.622;2023-03-11T00:49:40;20.33;;;8.23;;
52798;SDS011;38667;42.872;74.622;2023-03-11T00:52:08;25.05;;;7.95;;
52798;SDS011;38667;42.872;74.622;2023-03-11T00:54:35;28.15;;;7.55;;
52798;SDS011;38667;42.872;74.622;2023-03-11T00:57:01;22.27;;;6.80;;
52798;SDS011;38667;42.872;74.622;2023-03-11T00:59:27;29.45;;;7.28;;
52798;SDS011;38667;42.872;74.622;2023-03-11T01:01:54;44.22;;;8.18;;
52798;SDS011;38667;42.872;74.622;2023-03-11T01:04:20;40.95;;;8.30;;
52798;SDS011;38667;42.872;74.622;2023-03-11T01:06:46;32.45;;;7.63;;
52798;SDS011;38667;42.872;74.622;2023-03-11T01:09:14;34.17;;;7.53;;
52798;SDS011;38667;42.872;74.622;2023-03-11T01:11:40;28.95;;;8.10;;
52798;SDS011;38667;42.872;74.622;2023-03-11T01:14:07;28.63;;;7.28;;
52798;SDS011;38667;42.872;74.622;2023-03-11T01:16:33;27.50;;;6.47;;
52798;SDS011;38667;42.872;74.622;2023-03-11T01:18:59;34.42;;;7.85;;
52798;SDS011;38667;42.872;74.622;2023-03-11T01:21:26;41.35;;;8.30;;
52798;SDS011;38667;42.872;74.622;2023-03-11T01:23:52;37.38;;;7.95;;
52798;SDS011;38667;42.872;74.622;2023-03-11T01:26:20;30.50;;;7.57;;
52798;SDS011;38667;42.872;74.622;2023-03-11T01:28:46;27.20;;;8.40;;
52798;SDS011;38667;42.872;74.622;2023-03-11T01:31:13;18.27;;;6.10;;
52798;SDS011;38667;42.872;74.622;2023-03-11T01:33:39;25.08;;;8.45;;
52798;SDS011;38667;42.872;74.622;2023-03-11T01:36:05;47.83;;;13.60;;
52798;SDS011;38667;42.872;74.622;2023-03-11T01:38:32;89.00;;;44.38;;
52798;SDS011;38667;42.872;74.622;2023-03-11T01:40:59;84.00;;;42.55;;
52798;SDS011;38667;42.872;74.622;2023-03-11T01:43:48;71.13;;;37.33;;
52798;SDS011;38667;42.872;74.622;2023-03-11T01:46:17;46.40;;;18.83;;
52798;SDS011;38667;42.872;74.622;2023-03-11T01:48:45;35.70;;;14.77;;
52798;SDS011;38667;42.872;74.622;2023-03-11T01:51:12;32.08;;;12.98;;
52798;SDS011;38667;42.872;74.622;2023-03-11T01:53:39;48.92;;;12.43;;
52798;SDS011;38667;42.872;74.622;2023-03-11T01:56:06;45.88;;;11.90;;
52798;SDS011;38667;42.872;74.622;2023-03-11T01:58:34;45.45;;;11.05;;
52798;SDS011;38667;42.872;74.622;2023-03-11T02:01:05;38.97;;;11.73;;
52798;SDS011;38667;42.872;74.622;2023-03-11T02:03:33;65.85;;;19.50;;
52798;SDS011;38667;42.872;74.622;2023-03-11T02:06:03;75.57;;;19.67;;
52798;SDS011;38667;42.872;74.622;2023-03-11T02:08:32;64.15;;;20.85;;
52798;SDS011;38667;42.872;74.622;2023-03-11T02:10:59;84.55;;;23.67;;
52798;SDS011;38667;42.872;74.622;2023-03-11T02:13:29;85.30;;;25.48;;
52798;SDS011;38667;42.872;74.622;2023-03-11T02:15:57;76.80;;;22.83;;
52798;SDS011;38667;42.872;74.622;2023-03-11T02:18:25;54.13;;;24.05;;
52798;SDS011;38667;42.872;74.622;2023-03-11T02:20:53;66.13;;;25.75;;
52798;SDS011;38667;42.872;74.622;2023-03-11T02:23:28;73.97;;;24.65;;
52798;SDS011;38667;42.872;74.622;2023-03-11T02:26:00;88.53;;;26.17;;
52798;SDS011;38667;42.872;74.622;2023-03-11T02:28:33;67.75;;;24.83;;
52798;SDS011;38667;42.872;74.622;2023-03-11T02:31:01;77.72;;;29.83;;
52798;SDS011;38667;42.872;74.622;2023-03-11T02:33:28;75.60;;;29.05;;
52798;SDS011;38667;42.872;74.622;2023-03-11T02:35:57;73.63;;;27.67;;
52798;SDS011;38667;42.872;74.622;2023-03-11T02:38:23;69.10;;;21.88;;
52798;SDS011;38667;42.872;74.622;2023-03-11T02:40:50;71.10;;;22.48;;
52798;SDS011;38667;42.872;74.622;2023-03-11T02:43:19;42.85;;;17.08;;
52798;SDS011;38667;42.872;74.622;2023-03-11T02:45:50;42.60;;;16.98;;
52798;SDS011;38667;42.872;74.622;2023-03-11T02:48:17;22.52;;;7.40;;
52798;SDS011;38667;42.872;74.622;2023-03-11T02:50:45;41.72;;;10.50;;
52798;SDS011;38667;42.872;74.622;2023-03-11T02:53:12;13.93;;;5.75;;
52798;SDS011;38667;42.872;74.622;2023-03-11T02:55:39;20.08;;;4.20;;
52798;SDS011;38667;42.872;74.622;2023-03-11T02:58:05;14.65;;;3.53;;
52798;SDS011;38667;42.872;74.622;2023-03-11T03:00:31;9.27;;;3.17;;
52798;SDS011;38667;42.872;74.622;2023-03-11T03:02:59;17.65;;;3.50;;
52798;SDS011;38667;42.872;74.622;2023-03-11T03:05:25;12.05;;;3.95;;
52798;SDS011;38667;42.872;74.622;2023-03-11T03:07:52;13.38;;;3.72;;
52798;SDS011;38667;42.872;74.622;2023-03-11T03:10:19;11.52;;;3.63;;
52798;SDS011;38667;42.872;74.622;2023-03-11T03:12:46;11.45;;;3.58;;
52798;SDS011;38667;42.872;74.622;2023-03-11T03:15:12;19.73;;;4.00;;
52798;SDS011;38667;42.872;74.622;2023-03-11T03:17:39;18.55;;;3.67;;
52798;SDS011;38667;42.872;74.622;2023-03-11T03:20:08;16.33;;;3.38;;
52798;SDS011;38667;42.872;74.622;2023-03-11T03:22:35;28.13;;;3.35;;
52798;SDS011;38667;42.872;74.622;2023-03-11T03:25:01;24.73;;;3.90;;
52798;SDS011;38667;42.872;74.622;2023-03-11T03:27:28;14.27;;;2.83;;
52798;SDS011;38667;42.872;74.622;2023-03-11T03:29:54;15.65;;;3.38;;
52798;SDS011;38667;42.872;74.622;2023-03-11T03:32:21;12.57;;;3.53;;
52798;SDS011;38667;42.872;74.622;2023-03-11T03:34:47;25.80;;;4.53;;
52798;SDS011;38667;42.872;74.622;2023-03-11T03:37:15;20.17;;;4.07;;
52798;SDS011;38667;42.872;74.622;2023-03-11T03:39:41;18.85;;;3.72;;
52798;SDS011;38667;42.872;74.622;2023-03-11T03:42:07;15.15;;;3.40;;
52798;SDS011;38667;42.872;74.622;2023-03-11T03:44:34;13.93;;;3.95;;
52798;SDS011;38667;42.872;74.622;2023-03-11T03:47:00;18.67;;;4.03;;
52798;SDS011;38667;42.872;74.622;2023-03-11T03:49:26;17.42;;;4.47;;
52798;SDS011;38667;42.872;74.622;2023-03-11T03:51:53;18.10;;;4.57;;
52798;SDS011;38667;42.872;74.622;2023-03-11T03:54:20;22.58;;;4.63;;
52798;SDS011;38667;42.872;74.622;2023-03-11T03:56:47;17.20;;;4.38;;
52798;SDS011;38667;42.872;74.622;2023-03-11T03:59:13;19.23;;;4.30;;
52798;SDS011;38667;42.872;74.622;2023-03-11T04:01:39;14.20;;;4.30;;
52798;SDS011;38667;42.872;74.622;2023-03-11T04:04:06;13.80;;;4.63;;
52798;SDS011;38667;42.872;74.622;2023-03-11T04:06:32;16.70;;;5.43;;
52798;SDS011;38667;42.872;74.622;2023-03-11T04:08:58;25.58;;;4.63;;
52798;SDS011;38667;42.872;74.622;2023-03-11T04:11:26;18.17;;;6.45;;
52798;SDS011;38667;42.872;74.622;2023-03-11T04:13:53;15.68;;;4.93;;
52798;SDS011;38667;42.872;74.622;2023-03-11T04:16:20;16.90;;;5.15;;
52798;SDS011;38667;42.872;74.622;2023-03-11T04:18:47;12.77;;;3.60;;
52798;SDS011;38667;42.872;74.622;2023-03-11T04:21:14;17.58;;;4.45;;
52798;SDS011;38667;42.872;74.622;2023-03-11T04:23:40;27.20;;;4.03;;
52798;SDS011;38667;42.872;74.622;2023-03-11T04:26:06;31.50;;;5.07;;
52798;SDS011;38667;42.872;74.622;2023-03-11T04:28:34;16.35;;;3.78;;
52798;SDS011;38667;42.872;74.622;2023-03-11T04:31:01;22.10;;;3.65;;
52798;SDS011;38667;42.872;74.622;2023-03-11T04:33:27;16.02;;;3.13;;
52798;SDS011;38667;42.872;74.622;2023-03-11T04:35:53;18.35;;;4.00;;
52798;SDS011;38667;42.872;74.622;2023-03-11T04:38:20;15.95;;;3.95;;
52798;SDS011;38667;42.872;74.622;2023-03-11T04:40:46;21.67;;;4.43;;
52798;SDS011;38667;42.872;74.622;2023-03-11T04:43:12;18.52;;;4.47;;
52798;SDS011;38667;42.872;74.622;2023-03-11T04:45:40;20.30;;;3.40;;
52798;SDS011;38667;42.872;74.622;2023-03-11T04:48:07;26.85;;;5.20;;
52798;SDS011;38667;42.872;74.622;2023-03-11T04:50:33;23.23;;;4.40;;
52798;SDS011;38667;42.872;74.622;2023-03-11T04:53:00;26.40;;;4.45;;
52798;SDS011;38667;42.872;74.622;2023-03-11T04:55:26;16.95;;;3.85;;
52798;SDS011;38667;42.872;74.622;2023-03-11T04:57:52;26.40;;;5.28;;
52798;SDS011;38667;42.872;74.622;2023-03-11T05:00:19;25.88;;;5.22;;
52798;SDS011;38667;42.872;74.622;2023-03-11T05:02:47;19.42;;;4.70;;
52798;SDS011;38667;42.872;74.622;2023-03-11T05:05:13;23.02;;;4.40;;
52798;SDS011;38667;42.872;74.622;2023-03-11T05:07:39;26.35;;;4.30;;
52798;SDS011;38667;42.872;74.622;2023-03-11T05:10:06;20.38;;;4.10;;
52798;SDS011;38667;42.872;74.622;2023-03-11T05:12:34;31.65;;;4.65;;
52798;SDS011;38667;42.872;74.622;2023-03-11T05:15:00;27.63;;;5.00;;
52798;SDS011;38667;42.872;74.622;2023-03-11T05:17:26;29.45;;;4.07;;
52798;SDS011;38667;42.872;74.622;2023-03-11T05:19:54;26.80;;;4.00;;
52798;SDS011;38667;42.872;74.622;2023-03-11T05:22:20;18.23;;;4.72;;
52798;SDS011;38667;42.872;74.622;2023-03-11T05:24:47;35.17;;;6.93;;
52798;SDS011;38667;42.872;74.622;2023-03-11T05:27:13;17.95;;;4.18;;
52798;SDS011;38667;42.872;74.622;2023-03-11T05:29:40;22.48;;;4.47;;
52798;SDS011;38667;42.872;74.622;2023-03-11T05:32:06;18.10;;;3.67;;
52798;SDS011;38667;42.872;74.622;2023-03-11T05:34:33;16.83;;;4.50;;
52798;SDS011;38667;42.872;74.622;2023-03-11T05:37:01;21.88;;;5.15;;
52798;SDS011;38667;42.872;74.622;2023-03-11T05:39:27;19.20;;;3.80;;
52798;SDS011;38667;42.872;74.622;2023-03-11T05:41:53;21.75;;;4.32;;
52798;SDS011;38667;42.872;74.622;2023-03-11T05:44:20;18.33;;;3.90;;
52798;SDS011;38667;42.872;74.622;2023-03-11T05:46:47;16.30;;;3.70;;
52798;SDS011;38667;42.872;74.622;2023-03-11T05:49:13;20.02;;;4.18;;
52798;SDS011;38667;42.872;74.622;2023-03-11T05:51:40;20.45;;;4.50;;
52798;SDS011;38667;42.872;74.622;2023-03-11T05:54:07;17.63;;;4.43;;
52798;SDS011;38667;42.872;74.622;2023-03-11T05:56:34;15.57;;;3.83;;
52798;SDS011;38667;42.872;74.622;2023-03-11T05:59:00;19.25;;;3.70;;
52798;SDS011;38667;42.872;74.622;2023-03-11T06:01:27;15.30;;;4.03;;
52798;SDS011;38667;42.872;74.622;2023-03-11T06:03:53;20.00;;;4.00;;
52798;SDS011;38667;42.872;74.622;2023-03-11T06:06:19;17.13;;;4.20;;
52798;SDS011;38667;42.872;74.622;2023-03-11T06:08:46;26.25;;;4.65;;
52798;SDS011;38667;42.872;74.622;2023-03-11T06:11:14;19.77;;;4.60;;
52798;SDS011;38667;42.872;74.622;2023-03-11T06:13:41;21.75;;;4.60;;
52798;SDS011;38667;42.872;74.622;2023-03-11T06:16:07;19.80;;;4.70;;
52798;SDS011;38667;42.872;74.622;2023-03-11T06:18:34;21.17;;;3.83;;
52798;SDS011;38667;42.872;74.622;2023-03-11T06:21:00;18.80;;;4.20;;
52798;SDS011;38667;42.872;74.622;2023-03-11T06:23:27;15.80;;;4.78;;
52798;SDS011;38667;42.872;74.622;2023-03-11T06:25:55;19.08;;;5.15;;
52798;SDS011;38667;42.872;74.622;2023-03-11T06:28:23;21.48;;;5.00;;
52798;SDS011;38667;42.872;74.622;2023-03-11T06:30:49;16.90;;;3.80;;
52798;SDS011;38667;42.872;74.622;2023-03-11T06:33:16;29.55;;;4.32;;
52798;SDS011;38667;42.872;74.622;2023-03-11T06:35:42;23.52;;;4.18;;
52798;SDS011;38667;42.872;74.622;2023-03-11T06:38:09;23.35;;;4.22;;
52798;SDS011;38667;42.872;74.622;2023-03-11T06:40:35;22.80;;;4.30;;
52798;SDS011;38667;42.872;74.622;2023-03-11T06:43:02;14.68;;;4.43;;
52798;SDS011;38667;42.872;74.622;2023-03-11T06:45:30;16.42;;;4.20;;
52798;SDS011;38667;42.872;74.622;2023-03-11T06:47:56;21.38;;;4.75;;
52798;SDS011;38667;42.872;74.622;2023-03-11T06:50:23;19.90;;;4.47;;
52798;SDS011;38667;42.872;74.622;2023-03-11T06:52:49;24.83;;;5.05;;
52798;SDS011;38667;42.872;74.622;2023-03-11T06:55:15;20.65;;;4.47;;
52798;SDS011;38667;42.872;74.622;2023-03-11T06:57:42;17.10;;;4.00;;
52798;SDS011;38667;42.872;74.622;2023-03-11T07:00:09;18.65;;;4.13;;
52798;SDS011;38667;42.872;74.622;2023-03-11T07:02:37;15.20;;;4.30;;
52798;SDS011;38667;42.872;74.622;2023-03-11T07:05:04;13.77;;;4.00;;
52798;SDS011;38667;42.872;74.622;2023-03-11T07:07:31;20.55;;;3.97;;
52798;SDS011;38667;42.872;74.622;2023-03-11T07:09:57;10.02;;;3.70;;
52798;SDS011;38667;42.872;74.622;2023-03-11T07:12:23;10.38;;;3.78;;
52798;SDS011;38667;42.872;74.622;2023-03-11T07:14:52;13.48;;;5.45;;
52798;SDS011;38667;42.872;74.622;2023-03-11T07:17:19;16.45;;;3.88;;
52798;SDS011;38667;42.872;74.622;2023-03-11T07:19:47;16.27;;;4.50;;
52798;SDS011;38667;42.872;74.622;2023-03-11T07:22:14;18.23;;;4.10;;
52798;SDS011;38667;42.872;74.622;2023-03-11T07:24:40;17.92;;;3.97;;
52798;SDS011;38667;42.872;74.622;2023-03-11T07:27:10;19.58;;;3.83;;
52798;SDS011;38667;42.872;74.622;2023-03-11T07:29:36;24.73;;;5.18;;
52798;SDS011;38667;42.872;74.622;2023-03-11T07:32:02;12.23;;;4.10;;
52798;SDS011;38667;42.872;74.622;2023-03-11T07:34:30;13.55;;;3.90;;
52798;SDS011;38667;42.872;74.622;2023-03-11T07:36:58;16.13;;;3.90;;
52798;SDS011;38667;42.872;74.622;2023-03-11T07:39:25;14.13;;;3.42;;
52798;SDS011;38667;42.872;74.622;2023-03-11T07:41:51;10.07;;;3.78;;
52798;SDS011;38667;42.872;74.622;2023-03-11T07:44:18;15.00;;;4.15;;
52798;SDS011;38667;42.872;74.622;2023-03-11T07:46:44;13.55;;;3.83;;
52798;SDS011;38667;42.872;74.622;2023-03-11T07:49:11;18.00;;;4.15;;
52798;SDS011;38667;42.872;74.622;2023-03-11T07:51:37;12.45;;;3.50;;
52798;SDS011;38667;42.872;74.622;2023-03-11T07:54:06;19.67;;;5.00;;
52798;SDS011;38667;42.872;74.622;2023-03-11T07:56:33;20.38;;;5.18;;
52798;SDS011;38667;42.872;74.622;2023-03-11T07:59:00;19.83;;;4.20;;
52798;SDS011;38667;42.872;74.622;2023-03-11T08:01:28;18.25;;;4.22;;
52798;SDS011;38667;42.872;74.622;2023-03-11T08:03:55;21.55;;;4.78;;
52798;SDS011;38667;42.872;74.622;2023-03-11T08:06:22;14.10;;;3.72;;
52798;SDS011;38667;42.872;74.622;2023-03-11T08:08:50;15.75;;;3.80;;
52798;SDS011;38667;42.872;74.622;2023-03-11T08:11:18;29.15;;;4.90;;
52798;SDS011;38667;42.872;74.622;2023-03-11T08:13:45;16.67;;;3.90;;
52798;SDS011;38667;42.872;74.622;2023-03-11T08:16:12;9.95;;;3.80;;
52798;SDS011;38667;42.872;74.622;2023-03-11T08:18:40;25.92;;;3.90;;
52798;SDS011;38667;42.872;74.622;2023-03-11T08:21:07;17.67;;;3.70;;
52798;SDS011;38667;42.872;74.622;2023-03-11T08:23:34;21.98;;;4.47;;
52798;SDS011;38667;42.872;74.622;2023-03-11T08:26:01;24.10;;;3.70;;
52798;SDS011;38667;42.872;74.622;2023-03-11T08:28:30;8.35;;;2.88;;
52798;SDS011;38667;42.872;74.622;2023-03-11T08:30:57;18.15;;;3.38;;
52798;SDS011;38667;42.872;74.622;2023-03-11T08:33:23;50.30;;;5.93;;
52798;SDS011;38667;42.872;74.622;2023-03-11T08:35:50;33.33;;;5.68;;
52798;SDS011;38667;42.872;74.622;2023-03-11T08:38:16;20.33;;;3.97;;
52798;SDS011;38667;42.872;74.622;2023-03-11T08:40:42;20.42;;;4.15;;
52798;SDS011;38667;42.872;74.622;2023-03-11T08:43:10;18.85;;;3.83;;
52798;SDS011;38667;42.872;74.622;2023-03-11T08:45:39;17.88;;;3.30;;
52798;SDS011;38667;42.872;74.622;2023-03-11T08:48:07;10.48;;;3.17;;
52798;SDS011;38667;42.872;74.622;2023-03-11T08:50:35;17.20;;;3.83;;
52798;SDS011;38667;42.872;74.622;2023-03-11T08:53:01;11.15;;;3.25;;
52798;SDS011;38667;42.872;74.622;2023-03-11T08:55:27;9.88;;;2.55;;
52798;SDS011;38667;42.872;74.622;2023-03-11T08:57:54;17.13;;;3.47;;
52798;SDS011;38667;42.872;74.622;2023-03-11T09:00:21;17.48;;;3.15;;
52798;SDS011;38667;42.872;74.622;2023-03-11T09:02:49;16.45;;;3.60;;
52798;SDS011;38667;42.872;74.622;2023-03-11T09:05:16;11.75;;;3.00;;
52798;SDS011;38667;42.872;74.622;2023-03-11T09:07:42;14.65;;;3.35;;
52798;SDS011;38667;42.872;74.622;2023-03-11T09:10:10;16.17;;;4.68;;
52798;SDS011;38667;42.872;74.622;2023-03-11T09:12:38;27.17;;;6.00;;
52798;SDS011;38667;42.872;74.622;2023-03-11T09:15:05;28.63;;;5.60;;
52798;SDS011;38667;42.872;74.622;2023-03-11T09:17:31;17.65;;;4.47;;
52798;SDS011;38667;42.872;74.622;2023-03-11T09:19:59;18.42;;;5.60;;
52798;SDS011;38667;42.872;74.622;2023-03-11T09:22:26;21.27;;;5.25;;
52798;SDS011;38667;42.872;74.622;2023-03-11T09:24:52;17.23;;;6.03;;
52798;SDS011;38667;42.872;74.622;2023-03-11T09:27:18;19.80;;;6.50;;
52798;SDS011;38667;42.872;74.622;2023-03-11T09:29:45;13.35;;;3.92;;
52798;SDS011;38667;42.872;74.622;2023-03-11T09:32:11;25.20;;;5.18;;
52798;SDS011;38667;42.872;74.622;2023-03-11T09:34:38;21.70;;;5.25;;
52798;SDS011;38667;42.872;74.622;2023-03-11T09:37:06;18.70;;;4.43;;
52798;SDS011;38667;42.872;74.622;2023-03-11T09:39:33;13.98;;;4.05;;
52798;SDS011;38667;42.872;74.622;2023-03-11T09:42:01;24.33;;;6.78;;
52798;SDS011;38667;42.872;74.622;2023-03-11T09:44:31;34.20;;;11.07;;
52798;SDS011;38667;42.872;74.622;2023-03-11T09:47:10;30.95;;;10.30;;
52798;SDS011;38667;42.872;74.622;2023-03-11T09:50:05;21.02;;;10.82;;
52798;SDS011;38667;42.872;74.622;2023-03-11T09:52:41;31.88;;;11.98;;
52798;SDS011;38667;42.872;74.622;2023-03-11T09:55:29;29.63;;;11.13;;
52798;SDS011;38667;42.872;74.622;2023-03-11T09:58:00;36.72;;;12.60;;
52798;SDS011;38667;42.872;74.622;2023-03-11T10:00:29;34.58;;;10.55;;
52798;SDS011;38667;42.872;74.622;2023-03-11T10:02:56;40.00;;;12.05;;
52798;SDS011;38667;42.872;74.622;2023-03-11T10:05:25;29.38;;;11.82;;
52798;SDS011;38667;42.872;74.622;2023-03-11T10:07:57;34.85;;;12.07;;
52798;SDS011;38667;42.872;74.622;2023-03-11T10:10:27;35.25;;;12.10;;
52798;SDS011;38667;42.872;74.622;2023-03-11T10:13:00;29.50;;;11.93;;
52798;SDS011;38667;42.872;74.622;2023-03-11T10:15:36;28.15;;;10.85;;
52798;SDS011;38667;42.872;74.622;2023-03-11T10:18:18;24.77;;;10.98;;
52798;SDS011;38667;42.872;74.622;2023-03-11T10:20:54;25.63;;;10.75;;
52798;SDS011;38667;42.872;74.622;2023-03-11T10:23:28;24.70;;;9.65;;
52798;SDS011;38667;42.872;74.622;2023-03-11T10:26:06;25.05;;;8.27;;
52798;SDS011;38667;42.872;74.622;2023-03-11T10:28:38;31.40;;;8.50;;
52798;SDS011;38667;42.872;74.622;2023-03-11T10:31:12;28.40;;;8.95;;
52798;SDS011;38667;42.872;74.622;2023-03-11T10:33:46;32.58;;;8.95;;
52798;SDS011;38667;42.872;74.622;2023-03-11T10:36:17;28.52;;;7.82;;
52798;SDS011;38667;42.872;74.622;2023-03-11T10:38:48;26.65;;;7.35;;
52798;SDS011;38667;42.872;74.622;2023-03-11T10:41:16;25.02;;;10.13;;
52798;SDS011;38667;42.872;74.622;2023-03-11T10:43:48;32.83;;;8.82;;
52798;SDS011;38667;42.872;74.622;2023-03-11T10:46:19;22.42;;;6.53;;
52798;SDS011;38667;42.872;74.622;2023-03-11T10:48:48;28.83;;;7.50;;
52798;SDS011;38667;42.872;74.622;2023-03-11T10:51:15;17.58;;;6.25;;
52798;SDS011;38667;42.872;74.622;2023-03-11T10:53:48;26.17;;;7.18;;
52798;SDS011;38667;42.872;74.622;2023-03-11T10:56:27;15.05;;;5.85;;
52798;SDS011;38667;42.872;74.622;2023-03-11T10:58:55;30.65;;;6.70;;
52798;SDS011;38667;42.872;74.622;2023-03-11T11:01:22;35.55;;;7.72;;
52798;SDS011;38667;42.872;74.622;2023-03-11T11:03:49;25.23;;;6.10;;
52798;SDS011;38667;42.872;74.622;2023-03-11T11:06:21;32.20;;;5.78;;
52798;SDS011;38667;42.872;74.622;2023-03-11T11:09:06;32.45;;;6.53;;
52798;SDS011;38667;42.872;74.622;2023-03-11T11:11:43;28.23;;;6.53;;
52798;SDS011;38667;42.872;74.622;2023-03-11T11:14:26;26.67;;;6.15;;
52798;SDS011;38667;42.872;74.622;2023-03-11T11:17:13;19.05;;;5.05;;
52798;SDS011;38667;42.872;74.622;2023-03-11T11:19:43;40.70;;;6.68;;
52798;SDS011;38667;42.872;74.622;2023-03-11T11:22:10;25.95;;;8.13;;
52798;SDS011;38667;42.872;74.622;2023-03-11T11:24:43;18.80;;;6.90;;
52798;SDS011;38667;42.872;74.622;2023-03-11T11:27:14;31.30;;;7.82;;
52798;SDS011;38667;42.872;74.622;2023-03-11T11:29:42;29.27;;;10.05;;
52798;SDS011;38667;42.872;74.622;2023-03-11T11:32:15;23.38;;;7.50;;
52798;SDS011;38667;42.872;74.622;2023-03-11T11:34:52;19.67;;;7.25;;
52798;SDS011;38667;42.872;74.622;2023-03-11T11:37:21;43.97;;;8.43;;
52798;SDS011;38667;42.872;74.622;2023-03-11T11:39:51;25.48;;;8.20;;
52798;SDS011;38667;42.872;74.622;2023-03-11T11:42:19;31.15;;;8.13;;
52798;SDS011;38667;42.872;74.622;2023-03-11T11:44:50;38.50;;;14.88;;
52798;SDS011;38667;42.872;74.622;2023-03-11T11:47:19;30.25;;;7.90;;
52798;SDS011;38667;42.872;74.622;2023-03-11T11:49:49;41.60;;;12.88;;
52798;SDS011;38667;42.872;74.622;2023-03-11T11:52:20;35.15;;;8.55;;
52798;SDS011;38667;42.872;74.622;2023-03-11T11:54:49;36.58;;;10.77;;
52798;SDS011;38667;42.872;74.622;2023-03-11T11:57:19;38.33;;;11.10;;
52798;SDS011;38667;42.872;74.622;2023-03-11T11:59:46;38.35;;;11.93;;
52798;SDS011;38667;42.872;74.622;2023-03-11T12:02:18;33.13;;;11.75;;
52798;SDS011;38667;42.872;74.622;2023-03-11T12:04:58;37.17;;;11.60;;
52798;SDS011;38667;42.872;74.622;2023-03-11T12:07:38;26.70;;;10.90;;
52798;SDS011;38667;42.872;74.622;2023-03-11T12:10:25;39.08;;;13.27;;
52798;SDS011;38667;42.872;74.622;2023-03-11T12:13:10;32.25;;;13.15;;
52798;SDS011;38667;42.872;74.622;2023-03-11T12:16:00;35.25;;;13.20;;
52798;SDS011;38667;42.872;74.622;2023-03-11T12:18:32;34.15;;;12.60;;
52798;SDS011;38667;42.872;74.622;2023-03-11T12:21:03;38.05;;;12.18;;
52798;SDS011;38667;42.872;74.622;2023-03-11T12:23:43;52.75;;;13.20;;
52798;SDS011;38667;42.872;74.622;2023-03-11T12:26:20;54.10;;;12.45;;
52798;SDS011;38667;42.872;74.622;2023-03-11T12:28:49;48.00;;;11.63;;
52798;SDS011;38667;42.872;74.622;2023-03-11T12:31:20;61.17;;;13.88;;
52798;SDS011;38667;42.872;74.622;2023-03-11T12:33:49;54.28;;;13.25;;
52798;SDS011;38667;42.872;74.622;2023-03-11T12:36:21;49.22;;;14.48;;
52798;SDS011;38667;42.872;74.622;2023-03-11T12:38:50;48.40;;;15.07;;
52798;SDS011;38667;42.872;74.622;2023-03-11T12:41:29;58.20;;;20.50;;
52798;SDS011;38667;42.872;74.622;2023-03-11T12:44:04;46.97;;;16.27;;
52798;SDS011;38667;42.872;74.622;2023-03-11T12:46:58;62.15;;;16.42;;
52798;SDS011;38667;42.872;74.622;2023-03-11T12:49:41;53.95;;;15.25;;
52798;SDS011;38667;42.872;74.622;2023-03-11T12:52:19;42.97;;;15.88;;
52798;SDS011;38667;42.872;74.622;2023-03-11T12:58:22;36.53;;;13.98;;
52798;SDS011;38667;42.872;74.622;2023-03-11T13:01:11;47.13;;;16.30;;
52798;SDS011;38667;42.872;74.622;2023-03-11T13:03:50;48.40;;;15.18;;
52798;SDS011;38667;42.872;74.622;2023-03-11T13:06:28;40.60;;;16.27;;
52798;SDS011;38667;42.872;74.622;2023-03-11T13:09:12;40.90;;;17.65;;
52798;SDS011;38667;42.872;74.622;2023-03-11T13:11:42;49.15;;;19.42;;
52798;SDS011;38667;42.872;74.622;2023-03-11T13:14:17;52.33;;;18.95;;
52798;SDS011;38667;42.872;74.622;2023-03-11T13:16:53;52.92;;;18.63;;
52798;SDS011;38667;42.872;74.622;2023-03-11T13:19:34;48.65;;;20.30;;
52798;SDS011;38667;42.872;74.622;2023-03-11T13:25:17;57.35;;;21.25;;
52798;SDS011;38667;42.872;74.622;2023-03-11T13:27:53;62.97;;;28.40;;
52798;SDS011;38667;42.872;74.622;2023-03-11T13:30:26;47.67;;;23.50;;
52798;SDS011;38667;42.872;74.622;2023-03-11T13:35:54;46.85;;;18.73;;
52798;SDS011;38667;42.872;74.622;2023-03-11T13:41:23;74.18;;;29.70;;
52798;SDS011;38667;42.872;74.622;2023-03-11T13:44:05;55.42;;;24.58;;
52798;SDS011;38667;42.872;74.622;2023-03-11T13:46:42;66.90;;;27.85;;
52798;SDS011;38667;42.872;74.622;2023-03-11T13:49:13;60.47;;;27.13;;
52798;SDS011;38667;42.872;74.622;2023-03-11T13:51:49;66.70;;;27.77;;
52798;SDS011;38667;42.872;74.622;2023-03-11T13:54:21;64.10;;;28.42;;
52798;SDS011;38667;42.872;74.622;2023-03-11T13:56:56;59.40;;;25.17;;
52798;SDS011;38667;42.872;74.622;2023-03-11T13:59:25;63.17;;;25.50;;
52798;SDS011;38667;42.872;74.622;2023-03-11T14:01:55;54.30;;;24.85;;
52798;SDS011;38667;42.872;74.622;2023-03-11T14:04:24;55.17;;;25.58;;
52798;SDS011;38667;42.872;74.622;2023-03-11T14:06:53;71.97;;;28.10;;
52798;SDS011;38667;42.872;74.622;2023-03-11T14:09:20;71.53;;;27.92;;
52798;SDS011;38667;42.872;74.622;2023-03-11T14:11:47;63.65;;;22.70;;
52798;SDS011;38667;42.872;74.622;2023-03-11T14:14:19;47.30;;;21.88;;
52798;SDS011;38667;42.872;74.622;2023-03-11T14:16:57;52.47;;;21.98;;
52798;SDS011;38667;42.872;74.622;2023-03-11T14:19:25;59.30;;;23.90;;
52798;SDS011;38667;42.872;74.622;2023-03-11T14:21:51;64.32;;;23.80;;
52798;SDS011;38667;42.872;74.622;2023-03-11T14:24:19;54.33;;;22.60;;
52798;SDS011;38667;42.872;74.622;2023-03-11T14:26:47;53.58;;;23.55;;
52798;SDS011;38667;42.872;74.622;2023-03-11T14:29:15;66.95;;;24.63;;
52798;SDS011;38667;42.872;74.622;2023-03-11T14:31:42;57.97;;;26.20;;
52798;SDS011;38667;42.872;74.622;2023-03-11T14:34:15;54.50;;;25.55;;
52798;SDS011;38667;42.872;74.622;2023-03-11T14:36:42;57.22;;;25.35;;
52798;SDS011;38667;42.872;74.622;2023-03-11T14:39:23;58.22;;;26.63;;
52798;SDS011;38667;42.872;74.622;2023-03-11T14:41:52;56.60;;;24.90;;